Bishopton, United Kingdom

1:58 AM GMT on December 04, 2016 (GMT +0000)
Glasgow | | Change Station

Elev 26 ft 55.87 °N, 4.43 °W | Updated 8 minutes ago

Overcast
Overcast
37 °F
Feels Like 34 °F
N
5
Wind Variable Wind from SE

Today
High -- | Low -- °F
--% Chance of Precip.
Yesterday
High -- | Low -- °F
Precip. -- in
Pressure 30.36 in
Visibility 6.2 miles
Clouds Overcast 3300 ft
Windchill 34 °F
Dew Point 34 °F
Humidity 87%
Rainfall 0.00 in
Snow Depth Not available.
8:29 AM 3:46 PM
Waxing Crescent, 18% visible
METAR EGPF 040150Z AUTO 14004KT 9999 OVC033 03/01 Q1028
Pressure 30.36 in
Visibility 6.2 miles
Clouds Overcast 3300 ft
Windchill 34 °F
Dew Point 34 °F
Humidity 87%
Rainfall 0.00 in
Snow Depth Not available.
8:29 AM 3:46 PM
Waxing Crescent, 18% visible
METAR EGPF 040150Z AUTO 14004KT 9999 OVC033 03/01 Q1028

10-Day Weather Forecast

×

Almanac

Astronomy

Dec. 04, 2016 Rise Set
Actual Time
Civil Twilight
Nautical Twilight
Astronomical Twilight
Moon
Length of Visible Light
Length of Day
Tomorrow will be .
, % of the Moon is Illuminated

Today's Extremes

Country Highs Country Lows

Community

WunderPhotos

Upload Photos

1,955,560 photos uploaded!

WunderBlog® & News

Nearby

Air Quality

  Air Quality AQ Index Pollutant
Not available.

Snow Depth

Station Depth Elevation

Earthquake Activity

City Distance Mag. Time & Date
Minimum magnitude displayed is 2.5.

Coastal Water Temperatures

Place Temperature

Stations

Nearby Weather Stations

Station Location Temp. Windchill Dew Point Humidity Wind Precip. Elev Updated Type